Mitchellville, Tennessee
Current Conditions -  °F | °C
As of 6:53 AM on Wednesday 22 Oct 2014 (Local Time) from KBWG Reporting Station
Clear Clear  
Wind Chill: 39°   Ceiling: Unl
Heat Index: 42°   Visibility: 10mi
Dew Point: 38°   Wind: 5mph
Humidity: 85%   Direction: 40°NE
Pressure: 30.25"   Gusts: NA
Location:  36.63°N, 86.54°W
Report Text: KBWG 221153Z AUTO 04004KT 10SM CLR 06/03 A3025 RMK AO2 SLP244 T00560033 10078 20044 51019
Loading
Personal Weather Stations






























Interactive Weather Map
Tropical Storm Tracking
New forecast layout! Learn more

10-Day Weather Forecast

Advertisements
Track Severe Weather on mobile